Time;durP1;ratioP1;P1;durP2;ratioP2;P2;SDS_P1;SDS_P2;PMS_P1;PMS_P2;Temp;Humidity;BMP_temperature;BMP_pressure;BME280_temperature;BME280_humidity;BME280_pressure;Samples;Min_cycle;Max_cycle;Signal;HPM_P1;HPM_P2
2024/01/06 00:01:25;;;;;;;21.48;17.17;;;;;;;;;;5056684;28;20389;-80
2024/01/06 00:03:51;;;;;;;23.50;17.77;;;;;;;;;;5057035;28;20385;-80
2024/01/06 00:06:17;;;;;;;22.08;17.00;;;;;;;;;;5056296;28;20389;-79
2024/01/06 00:08:43;;;;;;;18.35;16.13;;;;;;;;;;5066818;28;20448;-80
2024/01/06 00:11:10;;;;;;;18.55;15.20;;;;;;;;;;5065786;28;21015;-80
2024/01/06 00:13:36;;;;;;;19.60;15.50;;;;;;;;;;5069944;28;20384;-80
2024/01/06 00:16:02;;;;;;;17.77;15.63;;;;;;;;;;5074470;28;20383;-80
2024/01/06 00:18:28;;;;;;;17.50;14.38;;;;;;;;;;5076185;28;20892;-80
2024/01/06 00:20:54;;;;;;;18.77;15.77;;;;;;;;;;5075376;28;20388;-80
2024/01/06 00:23:20;;;;;;;21.20;16.75;;;;;;;;;;5077972;28;20396;-79
2024/01/06 00:25:46;;;;;;;17.67;15.63;;;;;;;;;;5078651;28;20388;-80
2024/01/06 00:28:12;;;;;;;17.65;15.45;;;;;;;;;;5078064;28;20403;-80
2024/01/06 00:30:38;;;;;;;16.02;14.35;;;;;;;;;;5077312;28;20888;-80
2024/01/06 00:33:04;;;;;;;16.52;14.52;;;;;;;;;;5078174;28;20379;-80
2024/01/06 00:35:30;;;;;;;16.38;14.68;;;;;;;;;;5077854;28;20855;-80
2024/01/06 00:37:56;;;;;;;18.23;15.10;;;;;;;;;;5060224;28;20383;-80
2024/01/06 00:40:22;;;;;;;15.43;13.80;;;;;;;;;;5081163;28;20440;-80
2024/01/06 00:42:48;;;;;;;15.07;13.48;;;;;;;;;;5079908;28;20401;-80
2024/01/06 00:45:14;;;;;;;14.52;13.07;;;;;;;;;;5077359;28;20900;-80
2024/01/06 00:47:40;;;;;;;14.73;13.27;;;;;;;;;;5075483;28;20441;-80
2024/01/06 00:50:06;;;;;;;14.88;13.35;;;;;;;;;;5075393;28;20387;-80
2024/01/06 00:52:32;;;;;;;15.45;13.85;;;;;;;;;;5057285;28;20874;-79
2024/01/06 00:54:58;;;;;;;17.55;14.88;;;;;;;;;;5075178;28;20380;-80
2024/01/06 00:57:24;;;;;;;18.23;15.70;;;;;;;;;;5075520;28;20853;-80
2024/01/06 00:59:50;;;;;;;17.40;14.55;;;;;;;;;;5075366;28;20376;-80
2024/01/06 01:02:17;;;;;;;16.08;14.38;;;;;;;;;;5074837;28;20412;-80
2024/01/06 01:04:42;;;;;;;16.17;14.55;;;;;;;;;;5068156;28;20441;-80
2024/01/06 01:07:08;;;;;;;10.70;9.70;;;;;;;;;;5057000;28;20906;-80
2024/01/06 01:09:35;;;;;;;10.55;9.65;;;;;;;;;;5038104;28;20397;-80
2024/01/06 01:12:01;;;;;;;10.95;10.05;;;;;;;;;;5054666;28;20384;-80
2024/01/06 01:14:27;;;;;;;11.97;10.87;;;;;;;;;;5054580;28;20374;-80
2024/01/06 01:16:53;;;;;;;12.63;10.50;;;;;;;;;;5054971;28;20725;-80
2024/01/06 01:19:19;;;;;;;11.45;10.45;;;;;;;;;;5054953;28;20393;-79
2024/01/06 01:21:45;;;;;;;8.17;7.47;;;;;;;;;;5055111;28;20381;-79
2024/01/06 01:24:11;;;;;;;7.28;6.68;;;;;;;;;;5055077;28;20381;-79
2024/01/06 01:26:37;;;;;;;6.28;5.78;;;;;;;;;;5057195;28;20823;-80
2024/01/06 01:29:03;;;;;;;5.87;5.37;;;;;;;;;;5055790;28;20451;-79
2024/01/06 01:31:29;;;;;;;6.00;5.50;;;;;;;;;;5092154;28;20862;-79
2024/01/06 01:33:55;;;;;;;5.82;5.32;;;;;;;;;;5094546;28;20380;-79
2024/01/06 01:36:21;;;;;;;5.47;5.07;;;;;;;;;;5083523;28;20779;-80
2024/01/06 01:38:47;;;;;;;5.75;5.25;;;;;;;;;;5075516;28;20384;-79
2024/01/06 01:41:13;;;;;;;5.33;4.93;;;;;;;;;;5078349;28;20422;-80
2024/01/06 01:43:39;;;;;;;5.40;4.90;;;;;;;;;;5080202;28;20956;-80
2024/01/06 01:46:05;;;;;;;5.82;5.32;;;;;;;;;;5079572;28;20384;-80
2024/01/06 01:48:34;;;;;;;6.40;5.30;;;;;;;;;;5078007;28;20400;-80
2024/01/06 01:51:00;;;;;;;4.65;3.72;;;;;;;;;;5078157;28;20380;-80
2024/01/06 01:53:27;;;;;;;3.67;3.33;;;;;;;;;;5078465;28;20374;-81
2024/01/06 01:55:53;;;;;;;2.90;2.70;;;;;;;;;;5079643;28;20395;-80
2024/01/06 01:58:19;;;;;;;3.00;2.70;;;;;;;;;;5080079;28;20391;-80
2024/01/06 02:00:45;;;;;;;2.13;1.92;;;;;;;;;;5079272;28;20387;-81
2024/01/06 02:03:11;;;;;;;3.03;2.33;;;;;;;;;;5079003;28;20382;-80
2024/01/06 02:05:37;;;;;;;2.10;1.90;;;;;;;;;;5078405;28;20424;-80
2024/01/06 02:08:04;;;;;;;2.70;2.00;;;;;;;;;;5076540;28;20828;-80
2024/01/06 02:10:30;;;;;;;2.50;1.73;;;;;;;;;;5066718;28;20457;-80
2024/01/06 02:12:56;;;;;;;2.83;1.90;;;;;;;;;;5071953;28;20384;-81
2024/01/06 02:15:22;;;;;;;2.45;1.58;;;;;;;;;;5078433;28;20376;-80
2024/01/06 02:17:48;;;;;;;1.98;1.50;;;;;;;;;;5079228;28;20449;-80
2024/01/06 02:20:15;;;;;;;1.30;1.10;;;;;;;;;;5078200;28;20826;-80
2024/01/06 02:22:40;;;;;;;1.80;1.20;;;;;;;;;;5077457;28;20383;-81
2024/01/06 02:25:12;;;;;;;1.75;1.13;;;;;;;;;;5079222;28;20380;-80
2024/01/06 02:27:39;;;;;;;1.13;0.88;;;;;;;;;;5077909;28;20460;-80
2024/01/06 02:30:05;;;;;;;1.45;0.90;;;;;;;;;;5078438;28;20739;-80
2024/01/06 02:32:31;;;;;;;2.45;1.30;;;;;;;;;;5078428;28;20388;-80
2024/01/06 02:34:57;;;;;;;1.55;1.05;;;;;;;;;;5078095;28;20471;-80
2024/01/06 02:37:23;;;;;;;1.60;1.13;;;;;;;;;;5077607;28;20384;-80
2024/01/06 02:39:49;;;;;;;1.20;1.00;;;;;;;;;;5078109;28;20423;-80
2024/01/06 02:42:15;;;;;;;1.25;0.90;;;;;;;;;;5078489;28;20438;-79
2024/01/06 02:44:41;;;;;;;1.13;0.82;;;;;;;;;;5077814;28;20396;-80
2024/01/06 02:47:07;;;;;;;1.80;0.90;;;;;;;;;;5077140;28;20387;-80
2024/01/06 02:49:33;;;;;;;1.35;1.00;;;;;;;;;;5077500;28;20380;-80
2024/01/06 02:51:59;;;;;;;2.50;1.20;;;;;;;;;;5077376;28;20522;-80
2024/01/06 02:54:25;;;;;;;2.40;1.13;;;;;;;;;;5068232;28;20400;-79
2024/01/06 02:56:51;;;;;;;2.15;1.10;;;;;;;;;;5063030;28;20742;-79
2024/01/06 02:59:17;;;;;;;2.72;1.00;;;;;;;;;;5073697;28;20463;-79
2024/01/06 03:01:43;;;;;;;1.10;1.00;;;;;;;;;;5057354;28;20385;-79
2024/01/06 03:04:09;;;;;;;1.25;1.00;;;;;;;;;;5057022;28;20850;-79
2024/01/06 03:06:36;;;;;;;2.10;1.10;;;;;;;;;;5056732;28;20374;-80
2024/01/06 03:09:02;;;;;;;1.42;1.10;;;;;;;;;;5056155;28;20412;-79
2024/01/06 03:11:28;;;;;;;1.67;1.00;;;;;;;;;;5055977;28;20420;-80
2024/01/06 03:13:54;;;;;;;2.90;1.20;;;;;;;;;;5055836;28;20425;-79
2024/01/06 03:16:20;;;;;;;1.30;0.85;;;;;;;;;;5056379;28;20465;-79
2024/01/06 03:18:46;;;;;;;1.70;1.02;;;;;;;;;;5055920;28;20414;-79
2024/01/06 03:21:19;;;;;;;1.88;1.00;;;;;;;;;;5055943;28;20393;-79
2024/01/06 03:23:45;;;;;;;1.27;0.90;;;;;;;;;;5056175;28;20396;-79
2024/01/06 03:26:11;;;;;;;1.38;1.00;;;;;;;;;;5088841;28;20382;-79
2024/01/06 03:28:37;;;;;;;2.30;1.00;;;;;;;;;;5096140;28;20823;-79
2024/01/06 03:31:03;;;;;;;2.40;1.35;;;;;;;;;;5095865;28;20457;-79
2024/01/06 03:33:29;;;;;;;1.90;1.40;;;;;;;;;;5098042;28;20378;-79
2024/01/06 03:35:54;;;;;;;1.80;1.50;;;;;;;;;;5095185;28;20393;-79
2024/01/06 03:38:21;;;;;;;1.80;1.30;;;;;;;;;;5086805;28;20426;-79
2024/01/06 03:40:47;;;;;;;1.98;1.70;;;;;;;;;;5073354;28;20864;-80
2024/01/06 03:43:13;;;;;;;2.50;1.50;;;;;;;;;;5073497;28;20396;-80
2024/01/06 03:45:39;;;;;;;1.55;1.35;;;;;;;;;;5074333;28;20376;-79
2024/01/06 03:48:05;;;;;;;2.35;1.20;;;;;;;;;;5056844;28;20446;-79
2024/01/06 03:50:31;;;;;;;2.03;1.20;;;;;;;;;;5074617;28;20388;-79
2024/01/06 03:52:57;;;;;;;2.30;1.33;;;;;;;;;;5074443;28;20378;-79
2024/01/06 03:55:23;;;;;;;1.52;1.20;;;;;;;;;;5073997;28;20364;-79
2024/01/06 03:57:49;;;;;;;2.97;1.50;;;;;;;;;;5074005;28;20461;-79
2024/01/06 04:00:15;;;;;;;3.45;1.67;;;;;;;;;;5075264;28;20861;-80
2024/01/06 04:02:41;;;;;;;1.88;1.25;;;;;;;;;;5074134;28;20404;-79
2024/01/06 04:05:07;;;;;;;2.05;1.50;;;;;;;;;;5072529;28;20410;-79
2024/01/06 04:07:33;;;;;;;2.00;1.40;;;;;;;;;;5072568;28;20391;-79
2024/01/06 04:09:59;;;;;;;3.33;1.52;;;;;;;;;;5073000;28;20554;-79
2024/01/06 04:12:25;;;;;;;2.53;1.50;;;;;;;;;;5073279;28;20376;-79
2024/01/06 04:14:51;;;;;;;3.20;1.50;;;;;;;;;;5076614;28;20438;-79
2024/01/06 04:17:17;;;;;;;2.72;1.70;;;;;;;;;;5076030;28;20372;-79
2024/01/06 04:19:43;;;;;;;2.83;1.63;;;;;;;;;;5076456;28;20368;-79
2024/01/06 04:22:09;;;;;;;2.42;1.70;;;;;;;;;;5076454;28;20376;-79
2024/01/06 04:24:37;;;;;;;2.20;1.70;;;;;;;;;;5076980;28;20475;-79
2024/01/06 04:27:04;;;;;;;2.70;1.77;;;;;;;;;;5077195;28;20375;-79
2024/01/06 04:29:30;;;;;;;2.25;2.00;;;;;;;;;;5076487;28;20380;-79
2024/01/06 04:31:56;;;;;;;2.40;2.10;;;;;;;;;;5076525;28;20376;-79
2024/01/06 04:34:22;;;;;;;1.97;1.57;;;;;;;;;;5077034;28;20426;-79
2024/01/06 04:36:49;;;;;;;2.78;2.47;;;;;;;;;;5076978;28;20376;-79
2024/01/06 04:39:15;;;;;;;2.30;2.10;;;;;;;;;;5078042;28;20399;-79
2024/01/06 04:41:41;;;;;;;3.92;2.88;;;;;;;;;;5077331;28;20402;-79
2024/01/06 04:44:07;;;;;;;2.67;1.97;;;;;;;;;;5077075;28;20897;-79
2024/01/06 04:46:33;;;;;;;2.15;1.90;;;;;;;;;;5077168;28;20428;-79
2024/01/06 04:48:59;;;;;;;2.50;1.85;;;;;;;;;;5077277;28;20419;-79
2024/01/06 04:51:25;;;;;;;2.08;1.88;;;;;;;;;;5078344;28;20387;-80
2024/01/06 04:53:51;;;;;;;1.60;1.50;;;;;;;;;;5078166;28;20380;-79
2024/01/06 04:56:17;;;;;;;2.38;2.00;;;;;;;;;;5074612;28;20561;-79
2024/01/06 04:58:43;;;;;;;2.97;1.83;;;;;;;;;;5058341;28;20397;-79
2024/01/06 05:01:09;;;;;;;3.35;1.60;;;;;;;;;;5077714;28;20454;-80
2024/01/06 05:03:35;;;;;;;2.28;2.00;;;;;;;;;;5074711;28;20419;-79
2024/01/06 05:06:01;;;;;;;2.78;1.90;;;;;;;;;;5078398;28;20380;-80
2024/01/06 05:08:30;;;;;;;2.72;1.52;;;;;;;;;;5077388;28;20403;-79
2024/01/06 05:10:56;;;;;;;2.67;2.28;;;;;;;;;;5077448;28;20383;-79
2024/01/06 05:13:22;;;;;;;1.85;1.73;;;;;;;;;;5077586;28;20380;-79
2024/01/06 05:15:48;;;;;;;2.20;2.00;;;;;;;;;;5076979;28;20379;-79
2024/01/06 05:18:14;;;;;;;2.08;1.65;;;;;;;;;;5076294;28;20829;-79
2024/01/06 05:20:40;;;;;;;1.80;1.70;;;;;;;;;;5076565;28;20379;-79
2024/01/06 05:23:07;;;;;;;3.30;2.00;;;;;;;;;;5076940;28;20376;-79
2024/01/06 05:25:33;;;;;;;2.33;1.75;;;;;;;;;;5085586;28;20409;-79
2024/01/06 05:27:59;;;;;;;1.83;1.50;;;;;;;;;;5097838;28;20405;-79
2024/01/06 05:30:25;;;;;;;2.22;1.85;;;;;;;;;;5096948;28;20473;-79
2024/01/06 05:32:51;;;;;;;2.35;1.65;;;;;;;;;;5096774;28;20414;-79
2024/01/06 05:35:17;;;;;;;2.27;1.70;;;;;;;;;;5096159;28;20851;-79
2024/01/06 05:37:43;;;;;;;2.00;1.67;;;;;;;;;;5095488;28;20382;-79
2024/01/06 05:40:09;;;;;;;1.93;1.57;;;;;;;;;;5096675;28;20408;-79
2024/01/06 05:42:35;;;;;;;1.98;1.70;;;;;;;;;;5061860;28;20432;-79
2024/01/06 05:45:01;;;;;;;2.20;1.77;;;;;;;;;;5055791;28;20450;-79
2024/01/06 05:47:27;;;;;;;2.10;1.70;;;;;;;;;;5055654;28;20405;-79
2024/01/06 05:49:53;;;;;;;2.20;1.60;;;;;;;;;;5055981;28;20452;-79
2024/01/06 05:52:19;;;;;;;1.77;1.50;;;;;;;;;;5056299;28;20461;-79
2024/01/06 05:54:45;;;;;;;2.15;1.70;;;;;;;;;;5055792;28;20406;-79
2024/01/06 05:57:11;;;;;;;2.33;1.70;;;;;;;;;;5055542;28;20958;-78
2024/01/06 05:59:37;;;;;;;1.98;1.80;;;;;;;;;;5055645;28;20827;-79
2024/01/06 06:02:04;;;;;;;1.98;1.50;;;;;;;;;;5055315;28;20449;-78
2024/01/06 06:04:30;;;;;;;1.98;1.50;;;;;;;;;;5055508;28;20377;-79
2024/01/06 06:06:56;;;;;;;2.35;1.60;;;;;;;;;;5055027;28;20435;-79
2024/01/06 06:09:22;;;;;;;2.20;2.00;;;;;;;;;;5054711;28;20401;-79
2024/01/06 06:11:48;;;;;;;2.47;2.20;;;;;;;;;;5054796;28;20434;-79
2024/01/06 06:14:14;;;;;;;3.00;2.22;;;;;;;;;;5054862;28;20373;-79
2024/01/06 06:16:40;;;;;;;3.10;2.17;;;;;;;;;;5054811;28;20377;-79
2024/01/06 06:19:07;;;;;;;2.17;1.95;;;;;;;;;;5054547;28;20404;-79
2024/01/06 06:21:34;;;;;;;2.42;1.90;;;;;;;;;;5054781;28;20378;-78
2024/01/06 06:24:00;;;;;;;3.15;2.10;;;;;;;;;;5055202;28;20381;-79
2024/01/06 06:26:26;;;;;;;2.92;2.25;;;;;;;;;;5054453;28;20389;-79
2024/01/06 06:28:52;;;;;;;2.25;2.03;;;;;;;;;;5054685;28;20487;-79
2024/01/06 06:31:20;;;;;;;2.95;2.60;;;;;;;;;;5053856;28;21322;-79
2024/01/06 06:33:46;;;;;;;2.63;2.42;;;;;;;;;;5054360;28;20420;-79
2024/01/06 06:36:12;;;;;;;3.33;3.03;;;;;;;;;;5053974;28;20381;-79
2024/01/06 06:38:38;;;;;;;2.60;2.40;;;;;;;;;;5054133;28;20797;-79
2024/01/06 06:41:04;;;;;;;2.75;2.55;;;;;;;;;;5054293;28;20846;-79
2024/01/06 06:43:30;;;;;;;3.95;2.65;;;;;;;;;;5054093;28;20393;-79
2024/01/06 06:45:56;;;;;;;3.08;2.63;;;;;;;;;;5054262;28;20923;-79
2024/01/06 06:48:22;;;;;;;3.10;2.80;;;;;;;;;;5054047;28;20416;-80
2024/01/06 06:50:48;;;;;;;3.25;2.60;;;;;;;;;;5053942;28;20461;-79
2024/01/06 06:53:14;;;;;;;3.10;2.72;;;;;;;;;;5054524;28;20381;-79
2024/01/06 06:55:40;;;;;;;3.40;2.90;;;;;;;;;;5054751;28;20865;-80
2024/01/06 06:58:06;;;;;;;3.20;2.60;;;;;;;;;;5054783;28;20439;-79
2024/01/06 07:00:33;;;;;;;3.20;2.90;;;;;;;;;;5055323;28;20792;-79
2024/01/06 07:02:59;;;;;;;3.40;3.10;;;;;;;;;;5055218;28;20378;-79
2024/01/06 07:05:25;;;;;;;3.28;2.97;;;;;;;;;;5055373;28;20381;-79
2024/01/06 07:07:51;;;;;;;3.27;2.97;;;;;;;;;;5055595;28;20766;-80
2024/01/06 07:10:18;;;;;;;5.45;3.65;;;;;;;;;;5063356;28;20387;-80
2024/01/06 07:12:44;;;;;;;4.28;3.88;;;;;;;;;;5076001;28;20388;-79
2024/01/06 07:15:11;;;;;;;4.28;3.88;;;;;;;;;;5074273;28;20418;-79
2024/01/06 07:17:38;;;;;;;4.03;3.70;;;;;;;;;;5076596;28;20411;-79
2024/01/06 07:20:04;;;;;;;4.57;4.10;;;;;;;;;;5074190;28;20805;-79
2024/01/06 07:22:30;;;;;;;4.70;4.30;;;;;;;;;;5074532;28;20372;-79
2024/01/06 07:24:56;;;;;;;4.40;4.00;;;;;;;;;;5074631;28;20868;-79
2024/01/06 07:27:22;;;;;;;4.18;3.83;;;;;;;;;;5074555;28;20391;-79
2024/01/06 07:29:48;;;;;;;4.50;4.10;;;;;;;;;;5073888;28;20479;-79
2024/01/06 07:32:15;;;;;;;5.18;4.50;;;;;;;;;;5055994;28;21055;-79
2024/01/06 07:34:41;;;;;;;4.68;4.30;;;;;;;;;;5074334;28;20376;-78
2024/01/06 07:37:07;;;;;;;4.53;4.10;;;;;;;;;;5072296;28;20376;-78
2024/01/06 07:39:33;;;;;;;4.20;3.90;;;;;;;;;;5072407;28;20406;-78
2024/01/06 07:41:59;;;;;;;4.32;3.92;;;;;;;;;;5072413;28;20404;-78
2024/01/06 07:44:25;;;;;;;6.85;5.75;;;;;;;;;;5072607;28;20449;-78
2024/01/06 07:46:51;;;;;;;4.97;4.50;;;;;;;;;;5058149;28;20373;-78
2024/01/06 07:49:17;;;;;;;5.40;4.97;;;;;;;;;;5056241;28;20420;-78
2024/01/06 07:51:43;;;;;;;4.72;4.32;;;;;;;;;;5056131;28;20373;-78
2024/01/06 07:54:11;;;;;;;4.50;4.10;;;;;;;;;;5055801;28;20789;-78
2024/01/06 07:56:37;;;;;;;4.97;4.45;;;;;;;;;;5056222;28;20947;-78
2024/01/06 07:59:06;;;;;;;5.10;4.68;;;;;;;;;;5056443;28;21149;-78
2024/01/06 08:01:33;;;;;;;4.80;4.30;;;;;;;;;;5056396;28;20874;-79
2024/01/06 08:03:59;;;;;;;6.15;5.63;;;;;;;;;;5056715;28;20396;-79
2024/01/06 08:06:25;;;;;;;7.28;6.57;;;;;;;;;;5056473;28;20409;-79
2024/01/06 08:08:51;;;;;;;7.13;6.45;;;;;;;;;;5056354;28;20499;-79
2024/01/06 08:11:17;;;;;;;7.63;6.93;;;;;;;;;;5056085;28;20475;-79
2024/01/06 08:13:43;;;;;;;5.60;5.10;;;;;;;;;;5058805;28;20773;-78
2024/01/06 08:16:09;;;;;;;5.72;5.22;;;;;;;;;;5058602;28;20433;-79
2024/01/06 08:18:35;;;;;;;8.10;7.30;;;;;;;;;;5056642;28;20452;-78
2024/01/06 08:21:01;;;;;;;8.40;7.60;;;;;;;;;;5056924;28;20474;-78
2024/01/06 08:23:27;;;;;;;9.43;8.63;;;;;;;;;;5057026;28;20437;-78
2024/01/06 08:25:53;;;;;;;7.43;6.72;;;;;;;;;;5057464;28;20414;-78
2024/01/06 08:28:19;;;;;;;5.57;4.82;;;;;;;;;;5057165;28;20446;-78
2024/01/06 08:30:45;;;;;;;5.60;5.10;;;;;;;;;;5057577;28;20389;-78
2024/01/06 08:33:11;;;;;;;8.27;7.47;;;;;;;;;;5057890;28;20405;-79
2024/01/06 08:35:40;;;;;;;6.57;5.88;;;;;;;;;;5057824;28;20373;-78
2024/01/06 08:38:06;;;;;;;5.13;4.63;;;;;;;;;;5057064;28;20867;-78
2024/01/06 08:40:32;;;;;;;5.13;4.70;;;;;;;;;;5056183;28;20423;-79
2024/01/06 08:42:58;;;;;;;4.32;3.53;;;;;;;;;;5056128;28;20779;-78
2024/01/06 08:45:24;;;;;;;2.60;2.30;;;;;;;;;;5056730;28;20404;-78
2024/01/06 08:47:50;;;;;;;3.13;2.83;;;;;;;;;;5055853;28;20413;-79
2024/01/06 08:50:16;;;;;;;4.00;2.78;;;;;;;;;;5056298;28;20383;-79
2024/01/06 08:52:42;;;;;;;3.90;2.92;;;;;;;;;;5055637;28;20886;-79
2024/01/06 08:55:08;;;;;;;2.80;2.50;;;;;;;;;;5055837;28;20413;-79
2024/01/06 08:57:34;;;;;;;3.38;2.80;;;;;;;;;;5056583;28;20388;-80
2024/01/06 09:00:00;;;;;;;3.17;2.45;;;;;;;;;;5056900;28;20785;-79
2024/01/06 09:02:26;;;;;;;2.80;2.50;;;;;;;;;;5056718;28;20411;-79
2024/01/06 09:04:52;;;;;;;3.80;2.60;;;;;;;;;;5077782;28;20391;-79
2024/01/06 09:07:18;;;;;;;3.42;3.03;;;;;;;;;;5078057;28;20384;-79
2024/01/06 09:09:44;;;;;;;3.33;2.97;;;;;;;;;;5079213;28;20383;-79
2024/01/06 09:12:10;;;;;;;4.00;2.30;;;;;;;;;;5079378;28;20408;-79
2024/01/06 09:14:36;;;;;;;2.90;2.40;;;;;;;;;;5062176;28;20372;-80
2024/01/06 09:17:04;;;;;;;3.13;2.10;;;;;;;;;;5080539;28;20397;-79
2024/01/06 09:19:30;;;;;;;3.40;2.65;;;;;;;;;;5062583;28;20472;-80
2024/01/06 09:21:56;;;;;;;4.70;2.85;;;;;;;;;;5066267;28;20718;-81
2024/01/06 09:24:22;;;;;;;3.03;2.47;;;;;;;;;;5064943;28;20406;-81
2024/01/06 09:26:50;;;;;;;3.75;2.33;;;;;;;;;;5065787;28;20823;-79
2024/01/06 09:29:16;;;;;;;3.55;2.22;;;;;;;;;;5063679;28;20436;-79
2024/01/06 09:31:43;;;;;;;3.28;2.30;;;;;;;;;;5065279;28;20390;-78
2024/01/06 09:34:12;;;;;;;3.63;2.38;;;;;;;;;;5064579;28;20405;-79
2024/01/06 09:36:38;;;;;;;3.83;2.70;;;;;;;;;;5046727;28;20782;-78
2024/01/06 09:39:04;;;;;;;2.92;2.25;;;;;;;;;;5063828;28;20382;-79
2024/01/06 09:41:31;;;;;;;3.35;2.05;;;;;;;;;;5042087;28;20402;-80
2024/01/06 09:43:57;;;;;;;2.63;2.40;;;;;;;;;;5057261;28;20456;-79
2024/01/06 09:46:29;;;;;;;3.70;2.60;;;;;;;;;;5068836;28;21160;-79
2024/01/06 09:48:56;;;;;;;5.68;3.00;;;;;;;;;;5077594;28;20418;-80
2024/01/06 09:51:22;;;;;;;3.45;2.58;;;;;;;;;;5078714;28;20376;-80
2024/01/06 09:53:48;;;;;;;4.00;3.08;;;;;;;;;;5077895;28;20386;-80
2024/01/06 09:56:16;;;;;;;4.10;3.47;;;;;;;;;;5075971;28;20765;-80
2024/01/06 09:58:42;;;;;;;4.13;3.20;;;;;;;;;;5076444;28;20738;-80
2024/01/06 10:01:09;;;;;;;3.22;2.63;;;;;;;;;;5077209;28;20367;-81
2024/01/06 10:03:36;;;;;;;3.70;2.67;;;;;;;;;;5075729;28;20458;-79
2024/01/06 10:06:04;;;;;;;2.78;2.50;;;;;;;;;;5074076;28;20429;-79
2024/01/06 10:08:32;;;;;;;4.53;2.60;;;;;;;;;;5075756;28;20958;-79
2024/01/06 10:10:58;;;;;;;2.85;2.17;;;;;;;;;;5075729;28;20379;-80
2024/01/06 10:13:24;;;;;;;3.17;2.78;;;;;;;;;;5076814;28;20368;-79
2024/01/06 10:15:51;;;;;;;3.70;2.90;;;;;;;;;;5078634;28;20415;-81
2024/01/06 10:18:17;;;;;;;2.47;2.28;;;;;;;;;;5081171;28;20387;-79
2024/01/06 10:20:45;;;;;;;4.13;2.50;;;;;;;;;;5083319;28;20719;-78
2024/01/06 10:23:11;;;;;;;3.38;2.42;;;;;;;;;;5080662;28;20877;-80
2024/01/06 10:25:37;;;;;;;4.07;2.90;;;;;;;;;;5079461;28;20372;-80
2024/01/06 10:28:03;;;;;;;4.97;2.90;;;;;;;;;;5060504;28;20961;-80
2024/01/06 10:30:29;;;;;;;3.80;2.60;;;;;;;;;;5078998;28;20383;-80
2024/01/06 10:32:55;;;;;;;3.85;2.75;;;;;;;;;;5077700;28;20407;-79
2024/01/06 10:35:21;;;;;;;4.10;2.97;;;;;;;;;;5075321;28;20376;-81
2024/01/06 10:37:51;;;;;;;3.35;2.72;;;;;;;;;;5076207;28;20742;-80
2024/01/06 10:40:17;;;;;;;3.67;2.85;;;;;;;;;;5074338;28;20375;-80
2024/01/06 10:42:43;;;;;;;3.63;2.90;;;;;;;;;;5074133;28;20430;-79
2024/01/06 10:45:10;;;;;;;4.75;2.45;;;;;;;;;;5075163;28;20380;-80
2024/01/06 10:47:37;;;;;;;5.28;2.63;;;;;;;;;;5074748;28;20409;-79
2024/01/06 10:50:03;;;;;;;3.20;2.30;;;;;;;;;;5074569;28;20431;-79
2024/01/06 10:52:30;;;;;;;4.28;2.47;;;;;;;;;;5075129;28;20390;-79
2024/01/06 10:54:56;;;;;;;3.42;2.70;;;;;;;;;;5075882;28;20788;-79
2024/01/06 10:57:23;;;;;;;3.08;2.67;;;;;;;;;;5075200;28;20371;-79
2024/01/06 10:59:53;;;;;;;5.03;2.30;;;;;;;;;;5074283;28;20823;-79
2024/01/06 11:02:19;;;;;;;2.80;2.13;;;;;;;;;;5074973;28;20395;-79
2024/01/06 11:04:50;;;;;;;4.20;2.30;;;;;;;;;;5074710;28;20463;-79
2024/01/06 11:07:17;;;;;;;3.10;2.38;;;;;;;;;;5075151;28;20389;-80
2024/01/06 11:09:57;;;;;;;3.13;2.10;;;;;;;;;;5059798;28;20887;-79
2024/01/06 11:12:23;;;;;;;2.20;2.00;;;;;;;;;;5058071;28;20388;-80
2024/01/06 11:14:49;;;;;;;3.03;2.10;;;;;;;;;;5067166;28;20372;-79
2024/01/06 11:17:35;;;;;;;2.33;2.00;;;;;;;;;;5059648;28;20384;-79
2024/01/06 11:20:08;;;;;;;3.42;3.13;;;;;;;;;;5077020;28;20908;-80
2024/01/06 11:22:39;;;;;;;3.45;2.60;;;;;;;;;;5078606;28;20410;-81
2024/01/06 11:25:07;;;;;;;3.80;3.00;;;;;;;;;;5079714;28;20384;-81
2024/01/06 11:27:33;;;;;;;4.70;2.88;;;;;;;;;;5076051;28;20384;-78
2024/01/06 11:30:00;;;;;;;3.53;2.55;;;;;;;;;;5075440;28;20841;-79
2024/01/06 11:32:28;;;;;;;3.15;2.40;;;;;;;;;;5075334;28;20429;-79
2024/01/06 11:34:56;;;;;;;3.13;2.40;;;;;;;;;;5075949;28;20741;-79
2024/01/06 11:37:37;;;;;;;3.70;2.80;;;;;;;;;;5076350;28;20386;-81
2024/01/06 11:40:04;;;;;;;2.85;2.65;;;;;;;;;;5075873;28;20426;-80
2024/01/06 11:42:35;;;;;;;2.70;2.50;;;;;;;;;;5073494;28;20501;-80
2024/01/06 11:45:07;;;;;;;2.83;2.53;;;;;;;;;;5073331;28;20440;-79
2024/01/06 11:47:34;;;;;;;3.55;2.63;;;;;;;;;;5065748;28;20412;-79
2024/01/06 11:50:03;;;;;;;3.55;2.58;;;;;;;;;;5067521;28;20406;-80
2024/01/06 11:52:29;;;;;;;3.75;2.90;;;;;;;;;;5048568;28;20373;-81
2024/01/06 11:54:56;;;;;;;4.60;3.30;;;;;;;;;;5068229;28;20453;-80
2024/01/06 11:57:22;;;;;;;4.10;3.70;;;;;;;;;;5071601;28;20399;-80
2024/01/06 11:59:49;;;;;;;5.40;3.30;;;;;;;;;;5065620;28;20384;-80
2024/01/06 12:02:18;;;;;;;5.18;2.67;;;;;;;;;;5069852;28;20418;-81
2024/01/06 12:04:48;;;;;;;5.15;4.32;;;;;;;;;;5068671;28;20373;-80
2024/01/06 12:07:14;;;;;;;5.68;3.90;;;;;;;;;;5065068;28;20382;-80
2024/01/06 12:09:40;;;;;;;4.47;3.53;;;;;;;;;;5064362;28;20401;-79
2024/01/06 12:12:07;;;;;;;4.53;3.97;;;;;;;;;;5047245;28;20889;-79
2024/01/06 12:14:33;;;;;;;5.38;3.95;;;;;;;;;;5066829;28;20419;-79
2024/01/06 12:17:02;;;;;;;9.52;6.40;;;;;;;;;;5064980;28;20380;-81
2024/01/06 12:19:32;;;;;;;5.70;4.60;;;;;;;;;;5066066;28;20466;-80
2024/01/06 12:21:58;;;;;;;9.57;7.43;;;;;;;;;;5062386;28;20438;-81
2024/01/06 12:24:24;;;;;;;5.80;4.45;;;;;;;;;;5046711;28;20419;-81
2024/01/06 12:26:51;;;;;;;3.97;3.30;;;;;;;;;;5066408;28;20510;-82
2024/01/06 12:29:18;;;;;;;3.45;3.10;;;;;;;;;;5063862;28;20849;-81
2024/01/06 12:31:44;;;;;;;6.37;4.90;;;;;;;;;;5047271;28;20818;-81
2024/01/06 12:34:10;;;;;;;3.33;2.75;;;;;;;;;;5065808;28;20387;-81
2024/01/06 12:36:40;;;;;;;3.25;2.95;;;;;;;;;;5067018;28;20920;-80
2024/01/06 12:39:10;;;;;;;3.03;2.83;;;;;;;;;;5071529;28;20739;-80
2024/01/06 12:41:38;;;;;;;3.45;2.78;;;;;;;;;;5070906;28;20389;-79
2024/01/06 12:44:04;;;;;;;4.03;3.10;;;;;;;;;;5068373;28;20460;-80
2024/01/06 12:46:30;;;;;;;7.18;5.63;;;;;;;;;;5068968;28;20393;-79
2024/01/06 12:48:56;;;;;;;6.57;5.10;;;;;;;;;;5066080;28;20405;-81
2024/01/06 12:51:22;;;;;;;7.82;4.93;;;;;;;;;;5057275;28;20385;-81
2024/01/06 12:53:48;;;;;;;4.70;3.58;;;;;;;;;;5059267;28;20428;-80
2024/01/06 12:56:14;;;;;;;4.25;3.60;;;;;;;;;;5060003;28;20394;-79
2024/01/06 12:58:40;;;;;;;4.93;4.05;;;;;;;;;;5056090;28;20469;-79
2024/01/06 13:01:07;;;;;;;6.55;4.75;;;;;;;;;;5056403;28;20504;-80
2024/01/06 13:03:33;;;;;;;5.90;4.40;;;;;;;;;;5056507;28;20389;-79
2024/01/06 13:06:00;;;;;;;3.45;2.90;;;;;;;;;;5071427;28;20380;-79
2024/01/06 13:08:26;;;;;;;4.00;3.30;;;;;;;;;;5077085;28;20434;-79
2024/01/06 13:10:52;;;;;;;5.10;3.30;;;;;;;;;;5076297;28;20383;-80
2024/01/06 13:13:18;;;;;;;4.90;3.50;;;;;;;;;;5076737;28;20380;-79
2024/01/06 13:15:46;;;;;;;4.82;3.70;;;;;;;;;;5075907;28;20434;-79
2024/01/06 13:18:12;;;;;;;3.95;3.20;;;;;;;;;;5076511;28;20371;-79
2024/01/06 13:20:40;;;;;;;3.75;3.35;;;;;;;;;;5075117;28;20380;-79
2024/01/06 13:23:06;;;;;;;4.20;3.80;;;;;;;;;;5073578;28;20435;-80
2024/01/06 13:25:33;;;;;;;6.32;3.38;;;;;;;;;;5076176;28;20379;-79
2024/01/06 13:27:59;;;;;;;6.38;4.40;;;;;;;;;;5076125;28;20418;-79
2024/01/06 13:30:25;;;;;;;5.30;4.40;;;;;;;;;;5076656;28;20382;-80
2024/01/06 13:32:53;;;;;;;5.38;4.88;;;;;;;;;;5075598;28;20379;-79
2024/01/06 13:35:20;;;;;;;5.25;4.50;;;;;;;;;;5077417;28;20384;-80
2024/01/06 13:37:48;;;;;;;5.18;4.43;;;;;;;;;;5076975;28;20372;-79
2024/01/06 13:40:14;;;;;;;5.03;4.63;;;;;;;;;;5077074;28;20830;-80
2024/01/06 13:42:40;;;;;;;5.35;4.70;;;;;;;;;;5076372;28;20800;-79
2024/01/06 13:45:06;;;;;;;5.18;4.68;;;;;;;;;;5076446;28;20383;-80
2024/01/06 13:47:33;;;;;;;6.87;5.80;;;;;;;;;;5039481;28;20540;-80
2024/01/06 13:49:59;;;;;;;20.52;11.98;;;;;;;;;;5056156;28;20823;-78
2024/01/06 13:52:25;;;;;;;50.13;24.42;;;;;;;;;;5056706;28;20385;-79
2024/01/06 13:54:51;;;;;;;32.55;17.73;;;;;;;;;;5056902;28;20839;-80
2024/01/06 13:57:17;;;;;;;32.47;18.33;;;;;;;;;;5056970;28;20377;-80
2024/01/06 13:59:44;;;;;;;13.02;9.32;;;;;;;;;;5056442;28;20389;-80
2024/01/06 14:02:10;;;;;;;17.95;12.77;;;;;;;;;;5057453;28;20446;-79
2024/01/06 14:04:36;;;;;;;14.02;10.40;;;;;;;;;;5070110;28;20396;-79
2024/01/06 14:07:02;;;;;;;10.15;9.05;;;;;;;;;;5075923;28;20418;-80
2024/01/06 14:09:28;;;;;;;11.17;8.27;;;;;;;;;;5076109;28;20619;-79
2024/01/06 14:11:54;;;;;;;6.70;6.10;;;;;;;;;;5073998;28;20380;-80
2024/01/06 14:14:21;;;;;;;7.25;6.55;;;;;;;;;;5055378;28;20434;-79
2024/01/06 14:16:47;;;;;;;6.35;4.95;;;;;;;;;;5073415;28;20372;-80
2024/01/06 14:19:14;;;;;;;5.20;4.80;;;;;;;;;;5074466;28;20904;-80
2024/01/06 14:21:40;;;;;;;7.90;5.30;;;;;;;;;;5075609;28;20403;-79
2024/01/06 14:24:06;;;;;;;6.03;5.30;;;;;;;;;;5075011;28;20422;-79
2024/01/06 14:26:33;;;;;;;5.55;4.80;;;;;;;;;;5075559;28;20384;-80
2024/01/06 14:28:59;;;;;;;5.55;5.05;;;;;;;;;;5074955;28;20410;-80
2024/01/06 14:31:26;;;;;;;5.60;5.10;;;;;;;;;;5074888;28;20861;-80
2024/01/06 14:33:53;;;;;;;5.10;4.70;;;;;;;;;;5075130;28;20375;-80
2024/01/06 14:36:19;;;;;;;11.13;9.93;;;;;;;;;;5077029;28;20391;-80